Time;durP1;ratioP1;P1;durP2;ratioP2;P2;SDS_P1;SDS_P2;PMS_P1;PMS_P2;Temp;Humidity;BMP_temperature;BMP_pressure;BME280_temperature;BME280_humidity;BME280_pressure;Samples;Min_cycle;Max_cycle;Signal;HPM_P1;HPM_P2
2024/03/20 00:02:40;;;;;;;7.20;4.00;;;;;;;5.07;69.35;100534.78;6248960;28;20050;-75
2024/03/20 00:05:41;;;;;;;6.53;3.53;;;;;;;5.00;69.53;100524.59;6247635;28;20132;-75
2024/03/20 00:08:42;;;;;;;7.43;4.20;;;;;;;5.05;69.57;100516.69;6244387;28;20099;-75
2024/03/20 00:11:43;;;;;;;6.93;3.75;;;;;;;5.12;69.83;100514.75;6224248;28;20042;-75
2024/03/20 00:14:44;;;;;;;6.40;3.58;;;;;;;5.04;69.41;100515.88;6239714;28;20058;-75
2024/03/20 00:17:47;;;;;;;6.32;3.70;;;;;;;5.10;70.06;100517.38;6224304;28;20054;-75
2024/03/20 00:20:50;;;;;;;11.35;3.83;;;;;;;5.07;70.00;100514.91;6224074;28;20414;-75
2024/03/20 00:23:52;;;;;;;9.52;3.80;;;;;;;5.12;70.00;100519.94;6224039;28;20095;-75
2024/03/20 00:26:53;;;;;;;7.47;4.13;;;;;;;4.98;69.92;100515.19;6224095;28;20054;-75
2024/03/20 00:29:54;;;;;;;11.05;5.15;;;;;;;4.97;69.73;100522.09;6223693;28;20542;-75
2024/03/20 00:32:55;;;;;;;10.43;5.13;;;;;;;5.00;70.06;100516.84;6239227;28;20054;-75
2024/03/20 00:35:56;;;;;;;9.88;5.13;;;;;;;4.98;70.46;100518.63;6238939;28;20054;-75
2024/03/20 00:38:56;;;;;;;10.80;5.03;;;;;;;4.99;70.13;100509.13;6223957;28;20136;-75
2024/03/20 00:41:57;;;;;;;10.40;4.68;;;;;;;4.84;70.16;100506.13;6253556;28;20045;-75
2024/03/20 00:44:58;;;;;;;8.93;4.85;;;;;;;4.80;70.84;100516.59;6246783;28;20061;-75
2024/03/20 00:47:59;;;;;;;6.13;3.67;;;;;;;4.66;70.63;100511.00;6231830;28;20101;-75
2024/03/20 00:51:00;;;;;;;8.63;4.47;;;;;;;4.58;70.84;100506.03;6246929;28;20500;-75
2024/03/20 00:54:01;;;;;;;9.13;4.25;;;;;;;4.51;71.37;100512.25;6247704;28;20058;-75
2024/03/20 00:57:05;;;;;;;7.03;3.80;;;;;;;4.53;71.68;100508.75;6230551;28;20050;-75
2024/03/20 01:00:06;;;;;;;6.40;3.83;;;;;;;4.35;72.41;100507.53;6223069;28;20414;-75
2024/03/20 01:03:11;;;;;;;7.20;3.75;;;;;;;4.16;72.59;100507.22;6222866;28;20124;-75
2024/03/20 01:06:12;;;;;;;7.30;3.75;;;;;;;4.21;73.22;100509.66;6223065;28;20054;-75
2024/03/20 01:09:13;;;;;;;5.85;3.33;;;;;;;4.25;73.22;100503.53;6238336;28;20050;-76
2024/03/20 01:12:14;;;;;;;9.57;4.18;;;;;;;4.21;73.05;100507.06;6222746;28;20521;-75
2024/03/20 01:15:15;;;;;;;9.60;3.65;;;;;;;4.33;73.44;100498.16;6221923;28;20053;-75
2024/03/20 01:18:19;;;;;;;6.38;3.85;;;;;;;4.26;73.44;100501.78;6222785;28;20053;-75
2024/03/20 01:21:20;;;;;;;5.50;3.30;;;;;;;4.26;73.87;100496.59;6238166;28;20050;-75
2024/03/20 01:24:21;;;;;;;7.65;3.88;;;;;;;4.13;73.53;100502.09;6256316;28;20072;-75
2024/03/20 01:27:22;;;;;;;9.65;4.30;;;;;;;3.93;74.12;100496.63;6262503;28;20468;-75
2024/03/20 01:30:25;;;;;;;8.43;4.00;;;;;;;3.89;74.96;100495.88;6245924;28;20049;-75
2024/03/20 01:33:26;;;;;;;7.85;4.18;;;;;;;4.00;75.08;100500.75;6245798;28;20464;-75
2024/03/20 01:36:28;;;;;;;6.65;3.53;;;;;;;4.10;74.67;100496.16;6246867;28;20076;-75
2024/03/20 01:39:29;;;;;;;6.20;3.45;;;;;;;4.13;74.66;100501.28;6246939;28;20059;-75
2024/03/20 01:42:29;;;;;;;8.13;4.18;;;;;;;4.10;74.71;100499.63;6246796;28;20405;-75
2024/03/20 01:45:30;;;;;;;6.63;3.63;;;;;;;4.14;74.73;100508.13;6245503;28;20049;-75
2024/03/20 01:48:31;;;;;;;7.05;3.67;;;;;;;4.20;74.60;100501.06;6245553;28;20076;-75
2024/03/20 01:51:33;;;;;;;7.47;3.80;;;;;;;4.21;74.26;100496.75;6245091;28;20547;-75
2024/03/20 01:54:36;;;;;;;8.30;3.58;;;;;;;4.28;74.39;100508.59;6245389;28;20453;-75
2024/03/20 01:57:37;;;;;;;6.47;3.63;;;;;;;4.26;74.90;100500.03;6245261;28;20057;-75
2024/03/20 02:00:37;;;;;;;13.25;5.72;;;;;;;4.19;74.85;100508.84;6245199;28;20108;-76
2024/03/20 02:03:38;;;;;;;29.63;9.98;;;;;;;4.05;75.19;100504.06;6246478;28;20478;-75
2024/03/20 02:06:40;;;;;;;36.08;11.90;;;;;;;4.01;75.08;100510.19;6245215;28;20088;-75
2024/03/20 02:09:41;;;;;;;17.20;8.05;;;;;;;3.91;75.23;100513.91;6239138;28;20076;-75
2024/03/20 02:12:42;;;;;;;20.05;9.02;;;;;;;3.84;75.51;100502.88;6236833;28;20485;-75
2024/03/20 02:15:43;;;;;;;24.25;8.52;;;;;;;3.80;75.76;100502.13;6236382;28;20046;-67
2024/03/20 02:18:47;;;;;;;10.88;5.18;;;;;;;3.70;75.72;100508.41;6236885;28;20556;-67
2024/03/20 02:21:48;;;;;;;9.27;4.97;;;;;;;3.71;76.51;100507.53;6237105;28;20050;-68
2024/03/20 02:24:49;;;;;;;11.00;4.35;;;;;;;3.59;76.28;100513.84;6236596;28;20068;-67
2024/03/20 02:27:50;;;;;;;12.60;4.95;;;;;;;3.61;76.65;100501.75;6221374;28;20494;-67
2024/03/20 02:30:53;;;;;;;12.45;4.57;;;;;;;3.57;77.11;100505.28;6236400;28;20486;-67
2024/03/20 02:33:55;;;;;;;10.02;5.13;;;;;;;3.56;77.32;100507.91;6236706;28;20469;-67
2024/03/20 02:36:58;;;;;;;10.68;5.25;;;;;;;3.54;77.12;100491.59;6221546;28;20049;-67
2024/03/20 02:40:01;;;;;;;11.88;4.93;;;;;;;3.51;77.13;100500.28;6221613;28;20054;-67
2024/03/20 02:43:03;;;;;;;8.10;4.07;;;;;;;3.56;77.12;100501.03;6221301;28;20041;-67
2024/03/20 02:46:04;;;;;;;7.63;4.65;;;;;;;3.52;77.48;100504.56;6254644;28;20053;-67
2024/03/20 02:49:05;;;;;;;11.35;4.95;;;;;;;3.40;77.56;100505.72;6244534;28;20119;-67
2024/03/20 02:52:06;;;;;;;9.27;4.95;;;;;;;3.33;77.82;100508.47;6244164;28;20115;-68
2024/03/20 02:55:07;;;;;;;10.98;5.63;;;;;;;3.38;78.32;100506.63;6244446;28;20049;-69
2024/03/20 02:58:09;;;;;;;13.18;6.13;;;;;;;3.36;78.43;100513.56;6244518;28;20057;-68
2024/03/20 03:01:12;;;;;;;9.85;4.90;;;;;;;3.27;78.03;100519.75;6254472;28;20504;-67
2024/03/20 03:04:13;;;;;;;8.38;5.03;;;;;;;3.29;78.31;100522.31;6269166;28;20496;-67
2024/03/20 03:07:14;;;;;;;9.85;4.35;;;;;;;3.27;78.27;100522.34;6258715;28;20422;-67
2024/03/20 03:10:18;;;;;;;6.50;4.03;;;;;;;3.30;78.43;100529.19;6245473;28;20457;-68
2024/03/20 03:13:19;;;;;;;6.72;3.85;;;;;;;3.26;78.98;100525.81;6245603;28;20042;-68
2024/03/20 03:16:20;;;;;;;7.68;3.63;;;;;;;3.14;79.27;100521.78;6244305;28;20055;-68
2024/03/20 03:19:24;;;;;;;7.22;3.58;;;;;;;3.02;79.49;100520.31;6244159;28;20049;-69
2024/03/20 03:22:25;;;;;;;9.18;4.82;;;;;;;2.94;80.74;100511.06;6245375;28;20045;-68
2024/03/20 03:25:26;;;;;;;7.22;4.40;;;;;;;2.95;81.10;100510.22;6246027;28;20057;-67
2024/03/20 03:28:29;;;;;;;4.80;3.63;;;;;;;3.02;80.97;100507.44;6249841;28;20060;-67
2024/03/20 03:31:32;;;;;;;4.68;3.08;;;;;;;3.10;81.11;100515.00;6249494;28;20125;-67
2024/03/20 03:34:33;;;;;;;7.70;4.50;;;;;;;3.25;81.03;100518.94;6248597;28;20049;-67
2024/03/20 03:37:34;;;;;;;5.72;3.53;;;;;;;3.17;81.34;100524.31;6249593;28;20060;-67
2024/03/20 03:40:35;;;;;;;9.73;4.10;;;;;;;3.23;81.32;100520.72;6249663;28;20049;-67
2024/03/20 03:43:39;;;;;;;7.63;4.13;;;;;;;3.31;80.72;100530.88;6248951;28;20045;-67
2024/03/20 03:46:41;;;;;;;7.93;4.30;;;;;;;3.35;81.36;100535.91;6248275;28;20368;-67
2024/03/20 03:49:42;;;;;;;9.55;4.57;;;;;;;3.39;81.22;100531.53;6248650;28;20512;-67
2024/03/20 03:52:43;;;;;;;13.13;4.03;;;;;;;3.40;81.97;100528.94;6248713;28;20077;-67
2024/03/20 03:55:44;;;;;;;7.55;3.88;;;;;;;3.59;81.85;100526.75;6249328;28;20080;-67
2024/03/20 03:58:46;;;;;;;8.65;4.35;;;;;;;3.51;81.69;100528.66;6248700;28;20067;-67
2024/03/20 04:01:47;;;;;;;8.63;5.10;;;;;;;3.65;81.86;100532.66;6247753;28;20111;-67
2024/03/20 04:04:50;;;;;;;8.63;4.13;;;;;;;3.68;81.85;100535.97;6271055;28;20132;-67
2024/03/20 04:07:54;;;;;;;9.38;4.80;;;;;;;3.79;81.33;100536.56;6272366;28;20056;-68
2024/03/20 04:10:57;;;;;;;7.18;4.68;;;;;;;3.95;80.78;100534.44;6272279;28;20059;-67
2024/03/20 04:13:58;;;;;;;7.47;4.07;;;;;;;3.82;80.42;100539.06;6272131;28;20049;-67
2024/03/20 04:16:59;;;;;;;7.55;4.53;;;;;;;3.87;80.46;100543.25;6272174;28;20111;-67
2024/03/20 04:20:00;;;;;;;5.68;4.13;;;;;;;3.91;80.09;100542.28;6269265;28;20056;-67
2024/03/20 04:23:02;;;;;;;9.23;4.90;;;;;;;3.95;80.29;100537.00;6246983;28;20072;-67
2024/03/20 04:26:04;;;;;;;8.98;4.40;;;;;;;3.89;80.33;100538.91;6246570;28;20099;-67
2024/03/20 04:29:05;;;;;;;9.52;4.32;;;;;;;3.96;79.81;100541.31;6263068;28;20048;-67
2024/03/20 04:32:06;;;;;;;6.93;4.07;;;;;;;3.90;79.87;100541.47;6248693;28;20049;-67
2024/03/20 04:35:07;;;;;;;10.45;5.22;;;;;;;3.85;80.09;100543.31;6252174;28;20053;-67
2024/03/20 04:38:08;;;;;;;8.30;4.85;;;;;;;3.83;80.31;100547.69;6246415;28;20054;-67
2024/03/20 04:41:10;;;;;;;9.35;4.65;;;;;;;3.79;80.75;100544.31;6262444;28;20048;-67
2024/03/20 04:44:11;;;;;;;9.18;5.25;;;;;;;3.71;80.53;100553.97;6261017;28;20053;-67
2024/03/20 04:47:13;;;;;;;11.18;5.50;;;;;;;3.45;81.73;100558.94;6246750;28;20049;-67
2024/03/20 04:50:13;;;;;;;12.55;6.18;;;;;;;3.61;81.56;100550.78;6267428;28;20056;-69
2024/03/20 04:53:14;;;;;;;11.65;5.55;;;;;;;3.71;81.15;100553.16;6270809;28;20049;-68
2024/03/20 04:56:15;;;;;;;11.32;5.20;;;;;;;3.72;81.40;100560.81;6251363;28;20602;-67
2024/03/20 04:59:16;;;;;;;9.88;5.22;;;;;;;3.53;82.47;100567.34;6258116;28;20048;-67
2024/03/20 05:02:17;;;;;;;16.95;7.50;;;;;;;3.43;82.86;100570.13;6249341;28;20449;-67
2024/03/20 05:05:18;;;;;;;25.02;10.30;;;;;;;3.26;83.83;100576.56;6258000;28;20064;-66
2024/03/20 05:08:20;;;;;;;21.13;10.63;;;;;;;3.34;83.58;100582.41;6260905;28;20686;-67
2024/03/20 05:11:22;;;;;;;14.82;7.70;;;;;;;3.35;82.72;100584.09;6268677;28;20048;-67
2024/03/20 05:14:25;;;;;;;10.47;5.60;;;;;;;3.30;82.59;100583.34;6255618;28;21698;-66
2024/03/20 05:17:26;;;;;;;12.38;5.18;;;;;;;3.54;82.62;100594.81;6270085;28;20045;-67
2024/03/20 05:20:30;;;;;;;8.63;4.45;;;;;;;3.55;82.78;100591.38;6251683;28;20095;-67
2024/03/20 05:23:30;;;;;;;11.20;4.80;;;;;;;3.63;82.48;100595.47;6246922;28;20081;-67
2024/03/20 05:26:31;;;;;;;8.68;4.50;;;;;;;3.73;82.33;100577.19;6257680;28;20076;-67
2024/03/20 05:29:33;;;;;;;7.95;4.70;;;;;;;3.80;82.57;100591.63;6246739;28;20462;-66
2024/03/20 05:32:34;;;;;;;8.00;4.72;;;;;;;3.62;83.19;100601.53;6237940;28;20041;-67
2024/03/20 05:35:35;;;;;;;8.80;4.82;;;;;;;3.75;83.58;100602.06;6241811;28;20501;-66
2024/03/20 05:38:38;;;;;;;14.48;6.15;;;;;;;3.72;82.65;100598.69;6243150;28;20516;-66
2024/03/20 05:41:39;;;;;;;8.32;4.30;;;;;;;3.43;83.23;100610.56;6231690;28;20569;-67
2024/03/20 05:44:42;;;;;;;7.80;4.63;;;;;;;3.33;84.30;100609.06;6252062;28;20133;-69
2024/03/20 05:47:46;;;;;;;10.10;3.60;;;;;;;3.39;85.88;100622.66;6262145;28;20076;-67
2024/03/20 05:50:47;;;;;;;7.00;3.42;;;;;;;3.68;85.25;100621.16;6248643;28;20049;-67
2024/03/20 05:53:48;;;;;;;13.25;4.78;;;;;;;3.57;85.10;100628.31;6258014;28;20492;-67
2024/03/20 05:56:49;;;;;;;11.23;4.63;;;;;;;3.51;85.63;100620.72;6250484;28;20127;-67
2024/03/20 05:59:53;;;;;;;6.68;4.22;;;;;;;3.73;85.36;100616.75;6258231;28;20053;-67
2024/03/20 06:02:54;;;;;;;8.80;4.38;;;;;;;3.89;84.20;100622.41;6265042;28;20052;-67
2024/03/20 06:05:54;;;;;;;10.38;5.35;;;;;;;4.19;82.79;100620.75;6259709;28;20049;-67
2024/03/20 06:08:55;;;;;;;9.00;5.15;;;;;;;4.35;82.76;100620.38;6250528;28;20611;-67
2024/03/20 06:11:59;;;;;;;8.88;5.78;;;;;;;4.53;82.16;100627.66;6267427;28;20417;-75
2024/03/20 06:15:00;;;;;;;8.32;4.82;;;;;;;4.23;81.13;100624.97;6233865;28;20041;-66
2024/03/20 06:18:01;;;;;;;7.10;4.57;;;;;;;4.33;81.69;100633.34;6243156;28;20084;-74
2024/03/20 06:21:01;;;;;;;8.00;4.60;;;;;;;4.48;81.89;100639.81;6238569;28;20506;-66
2024/03/20 06:24:05;;;;;;;8.18;4.57;;;;;;;4.68;81.22;100633.28;6255299;28;20078;-67
2024/03/20 06:27:08;;;;;;;10.10;4.30;;;;;;;4.69;80.25;100640.13;6250109;28;20057;-67
2024/03/20 06:30:15;;;;;;;9.52;4.63;;;;;;;4.84;80.06;100647.50;6269625;28;20045;-69
2024/03/20 06:33:16;;;;;;;9.45;4.40;;;;;;;4.99;80.84;100649.63;6255154;28;20397;-69
2024/03/20 06:36:17;;;;;;;8.90;4.35;;;;;;;5.00;80.92;100647.88;6269309;28;20059;-67
2024/03/20 06:39:17;;;;;;;7.70;4.65;;;;;;;5.24;80.45;100648.94;6270556;28;20056;-67
2024/03/20 06:42:21;;;;;;;7.55;4.25;;;;;;;5.21;79.08;100649.03;6269720;28;20048;-67
2024/03/20 06:45:22;;;;;;;9.60;4.93;;;;;;;5.20;79.52;100655.09;6270430;28;20053;-68
2024/03/20 06:48:27;;;;;;;11.20;5.82;;;;;;;5.54;78.65;100659.25;6270651;28;20525;-74
2024/03/20 06:51:32;;;;;;;14.40;7.53;;;;;;;5.85;78.83;100653.97;6270410;28;20088;-74
2024/03/20 06:54:33;;;;;;;30.75;14.10;;;;;;;6.01;77.49;100659.53;6270309;28;20515;-74
2024/03/20 06:57:34;;;;;;;21.75;10.73;;;;;;;6.00;77.24;100658.69;6269140;28;20048;-75
2024/03/20 07:00:34;;;;;;;17.95;6.00;;;;;;;6.02;75.63;100659.47;6270411;28;20513;-66
2024/03/20 07:03:38;;;;;;;11.10;5.93;;;;;;;6.19;75.96;100666.69;6273881;28;20053;-75
2024/03/20 07:06:39;;;;;;;11.30;5.43;;;;;;;6.60;75.01;100661.84;6275243;28;20045;-74
2024/03/20 07:09:42;;;;;;;8.10;5.43;;;;;;;6.56;73.10;100667.19;6273872;28;20045;-67
2024/03/20 07:12:43;;;;;;;9.60;5.40;;;;;;;6.75;72.75;100665.66;6274719;28;20134;-67
2024/03/20 07:15:46;;;;;;;8.65;5.38;;;;;;;6.99;72.59;100665.69;6273639;28;20510;-67
2024/03/20 07:18:47;;;;;;;12.35;5.43;;;;;;;7.13;71.28;100666.03;6274704;28;20053;-67
2024/03/20 07:21:48;;;;;;;12.20;5.53;;;;;;;7.31;70.85;100669.69;6273549;28;20383;-66
2024/03/20 07:24:49;;;;;;;10.98;5.35;;;;;;;7.49;69.74;100665.53;6274436;28;20045;-67
2024/03/20 07:27:50;;;;;;;11.63;5.93;;;;;;;7.86;68.67;100664.97;6274690;28;20060;-67
2024/03/20 07:30:51;;;;;;;11.38;6.03;;;;;;;7.80;67.37;100670.41;6272915;28;20089;-67
2024/03/20 07:33:52;;;;;;;11.85;6.13;;;;;;;8.12;66.57;100670.84;6272845;28;20049;-67
2024/03/20 07:36:53;;;;;;;11.30;5.82;;;;;;;8.38;66.27;100666.31;6273266;28;20122;-67
2024/03/20 07:39:56;;;;;;;10.98;4.88;;;;;;;8.48;63.94;100667.63;6274356;28;20501;-75
2024/03/20 07:43:00;;;;;;;8.05;4.68;;;;;;;8.43;64.29;100672.19;6273162;28;20045;-75
2024/03/20 07:46:01;;;;;;;7.47;4.53;;;;;;;8.59;62.96;100677.59;6272867;28;20063;-67
2024/03/20 07:49:03;;;;;;;12.52;4.88;;;;;;;8.60;62.27;100680.13;6273178;28;20139;-67
2024/03/20 07:52:05;;;;;;;8.60;5.00;;;;;;;8.79;61.29;100680.19;6274024;28;20060;-67
2024/03/20 07:55:08;;;;;;;10.60;5.55;;;;;;;9.44;61.51;100678.13;6272922;28;20052;-68
2024/03/20 07:58:09;;;;;;;8.55;5.00;;;;;;;9.33;60.88;100683.00;6274029;28;20413;-68
2024/03/20 08:01:11;;;;;;;11.18;4.75;;;;;;;9.23;59.17;100679.97;6273857;28;20497;-68
2024/03/20 08:04:12;;;;;;;11.30;4.85;;;;;;;8.90;59.76;100686.69;6273782;28;20055;-68
2024/03/20 08:07:13;;;;;;;7.05;3.88;;;;;;;8.99;58.78;100678.47;6273708;28;20045;-68
2024/03/20 08:10:14;;;;;;;8.02;4.82;;;;;;;9.34;59.45;100676.84;6273545;28;20413;-68
2024/03/20 08:13:15;;;;;;;10.27;4.80;;;;;;;9.41;58.83;100673.06;6271569;28;20059;-67
2024/03/20 08:16:17;;;;;;;7.65;4.25;;;;;;;9.57;58.38;100680.16;6273514;28;20060;-67
2024/03/20 08:19:21;;;;;;;7.10;4.03;;;;;;;9.24;58.50;100684.25;6272184;28;20053;-68
2024/03/20 08:22:21;;;;;;;8.63;4.20;;;;;;;9.28;59.13;100682.34;6272356;28;20103;-67
2024/03/20 08:25:23;;;;;;;7.22;3.88;;;;;;;9.84;58.44;100678.88;6271978;28;20053;-68
2024/03/20 08:28:23;;;;;;;5.82;3.70;;;;;;;10.04;57.68;100682.25;6273486;28;20057;-67
2024/03/20 08:31:24;;;;;;;7.20;3.97;;;;;;;10.21;55.58;100678.81;6273123;28;20099;-67
2024/03/20 08:34:27;;;;;;;6.93;3.40;;;;;;;10.15;55.11;100680.00;6271843;28;20053;-67
2024/03/20 08:37:30;;;;;;;10.85;4.25;;;;;;;9.97;55.39;100686.94;6272972;28;20057;-67
2024/03/20 08:40:32;;;;;;;8.98;4.63;;;;;;;10.03;54.18;100686.63;6271985;28;20045;-68
2024/03/20 08:43:34;;;;;;;6.38;3.80;;;;;;;9.94;54.81;100681.03;6272774;28;20072;-67
2024/03/20 08:46:38;;;;;;;8.30;4.30;;;;;;;10.05;55.71;100676.16;6273036;28;20057;-67
2024/03/20 08:49:39;;;;;;;9.50;3.97;;;;;;;10.11;54.54;100683.66;6272780;28;20520;-68
2024/03/20 08:52:40;;;;;;;7.75;3.70;;;;;;;9.81;52.80;100671.19;6271263;28;20179;-67
2024/03/20 08:55:42;;;;;;;6.45;4.15;;;;;;;10.32;53.73;100678.34;6271533;28;20053;-67
2024/03/20 08:58:43;;;;;;;;;;;;;;;10.99;54.42;100682.69;6272880;28;20135;-67
2024/03/20 09:01:43;;;;;;;9.73;4.43;;;;;;;11.25;53.26;100681.31;6271225;28;19921;-67
2024/03/20 09:04:44;;;;;;;7.30;4.45;;;;;;;11.43;52.24;100689.09;6270992;28;20053;-67
2024/03/20 09:07:45;;;;;;;8.48;4.20;;;;;;;11.56;52.47;100681.41;6272658;28;20434;-67
2024/03/20 09:10:46;;;;;;;6.75;4.38;;;;;;;11.86;51.20;100686.69;6270983;28;20461;-68
2024/03/20 09:13:48;;;;;;;10.15;4.60;;;;;;;11.85;50.40;100687.63;6272047;28;20048;-67
2024/03/20 09:16:49;;;;;;;;;;;;;;;11.70;50.03;100690.16;6272585;28;20053;-67
2024/03/20 09:19:51;;;;;;;8.02;4.28;;;;;;;11.67;50.07;100694.72;6271933;28;19960;-67
2024/03/20 09:22:56;;;;;;;7.40;3.53;;;;;;;12.16;49.53;100686.75;6271993;28;20053;-67
2024/03/20 09:25:56;;;;;;;7.30;4.63;;;;;;;12.25;51.22;100693.22;6271624;28;20685;-68
2024/03/20 09:28:57;;;;;;;9.07;4.80;;;;;;;11.73;49.28;100686.53;6271918;28;20055;-75
2024/03/20 09:31:58;;;;;;;9.32;5.20;;;;;;;11.72;48.53;100689.25;6270444;28;20045;-75
2024/03/20 09:34:59;;;;;;;8.10;4.50;;;;;;;12.09;49.32;100675.81;6270562;28;20132;-75
2024/03/20 09:38:03;;;;;;;7.72;3.60;;;;;;;11.89;49.96;100676.94;6270480;28;20095;-75
2024/03/20 09:41:13;;;;;;;7.38;4.28;;;;;;;12.40;48.97;100665.34;6271843;28;20041;-75
2024/03/20 09:44:17;;;;;;;7.35;4.47;;;;;;;12.66;48.56;100667.25;6270258;28;20052;-75
2024/03/20 09:47:22;;;;;;;6.55;4.10;;;;;;;12.75;47.88;100668.47;6270197;28;20422;-75
2024/03/20 09:50:23;;;;;;;6.93;4.40;;;;;;;12.65;48.58;100662.09;6271361;28;20060;-75
2024/03/20 09:53:25;;;;;;;7.53;3.75;;;;;;;12.04;47.55;100659.53;6270011;28;20060;-68
2024/03/20 09:56:26;;;;;;;7.30;3.95;;;;;;;12.62;47.58;100673.59;6269823;28;20485;-68
2024/03/20 09:59:29;;;;;;;8.10;3.97;;;;;;;12.79;47.61;100666.53;6271413;28;20056;-68
2024/03/20 10:02:30;;;;;;;6.72;3.08;;;;;;;12.84;48.09;100661.81;6271345;28;20120;-68
2024/03/20 10:05:31;;;;;;;6.28;3.55;;;;;;;12.83;47.26;100658.38;6269814;28;20071;-68
2024/03/20 10:08:34;;;;;;;7.35;4.03;;;;;;;13.36;46.62;100657.78;6271256;28;20049;-68
2024/03/20 10:11:35;;;;;;;7.50;3.72;;;;;;;13.45;47.46;100657.22;6270954;28;20408;-75
2024/03/20 10:14:36;;;;;;;7.32;3.85;;;;;;;13.47;46.61;100653.56;6271320;28;20109;-75
2024/03/20 10:17:42;;;;;;;5.35;3.35;;;;;;;13.60;45.84;100652.78;6270825;28;20458;-75
2024/03/20 10:20:43;;;;;;;7.43;3.30;;;;;;;13.49;44.56;100643.81;6269955;28;20058;-75
2024/03/20 10:23:46;;;;;;;6.28;3.92;;;;;;;14.29;43.55;100649.09;6270937;28;20048;-75
2024/03/20 10:26:48;;;;;;;6.13;3.38;;;;;;;14.03;45.67;100639.50;6269802;28;20056;-75
2024/03/20 10:29:50;;;;;;;8.13;3.20;;;;;;;14.00;44.32;100637.06;6270814;28;20056;-75
2024/03/20 10:32:52;;;;;;;6.57;3.97;;;;;;;13.72;44.55;100641.50;6269870;28;20083;-75
2024/03/20 10:35:54;;;;;;;6.72;3.63;;;;;;;14.06;43.77;100629.63;6271178;28;20348;-75
2024/03/20 10:38:58;;;;;;;7.78;3.47;;;;;;;14.47;44.02;100620.72;6275778;28;20268;-75
2024/03/20 10:42:00;;;;;;;5.78;3.33;;;;;;;14.52;42.31;100625.69;6275954;28;20128;-76
2024/03/20 10:45:03;;;;;;;6.93;3.17;;;;;;;14.34;41.61;100633.03;6274449;28;20053;-75
2024/03/20 10:48:09;;;;;;;6.55;2.97;;;;;;;13.73;40.59;100627.44;6275630;28;20048;-75
2024/03/20 10:51:14;;;;;;;6.30;3.30;;;;;;;14.62;41.20;100618.03;6274101;28;20099;-76
2024/03/20 10:54:16;;;;;;;6.38;3.60;;;;;;;14.27;41.46;100611.63;6274428;28;20142;-76
2024/03/20 10:57:17;;;;;;;4.55;3.22;;;;;;;14.30;40.95;100616.63;6275225;28;20443;-76
2024/03/20 11:00:20;;;;;;;4.83;2.87;;;;;;;14.49;41.38;100615.38;6275561;28;20106;-75
2024/03/20 11:03:42;;;;;;;5.60;3.58;;;;;;;14.75;41.28;100615.41;6274117;28;20049;-75
2024/03/20 11:06:44;;;;;;;7.68;3.53;;;;;;;14.88;42.85;100617.06;6273826;28;20485;-75
2024/03/20 11:09:45;;;;;;;7.00;3.93;;;;;;;14.84;42.61;100609.50;6275149;28;20053;-75
2024/03/20 11:12:46;;;;;;;5.28;3.45;;;;;;;15.42;41.87;100596.63;6273683;28;20052;-76
2024/03/20 11:15:50;;;;;;;7.88;3.10;;;;;;;14.82;39.63;100612.25;6274879;28;20057;-75
2024/03/20 11:18:53;;;;;;;5.88;3.03;;;;;;;15.09;38.79;100584.97;6273926;28;20052;-75
2024/03/20 11:21:55;;;;;;;;;;;;;;;15.31;41.50;100582.47;6275308;28;20130;-76
2024/03/20 11:24:56;;;;;;;4.60;3.13;;;;;;;15.17;40.44;100579.16;6274885;28;19921;-75
2024/03/20 11:27:57;;;;;;;6.20;3.60;;;;;;;15.21;40.18;100583.25;6273658;28;20091;-75
2024/03/20 11:30:57;;;;;;;7.82;3.40;;;;;;;15.40;39.61;100582.75;6273281;28;20052;-75
2024/03/20 11:33:58;;;;;;;9.10;3.35;;;;;;;15.73;40.10;100582.13;6273292;28;20141;-68
2024/03/20 11:36:59;;;;;;;5.28;3.67;;;;;;;14.77;40.59;100587.25;6273087;28;20429;-68
2024/03/20 11:40:00;;;;;;;4.90;3.20;;;;;;;15.22;40.72;100571.81;6274386;28;20417;-68
2024/03/20 11:43:01;;;;;;;7.60;3.85;;;;;;;15.15;40.42;100574.00;6272983;28;20489;-67
2024/03/20 11:46:02;;;;;;;8.13;3.28;;;;;;;15.22;40.07;100570.00;6274153;28;20060;-67
2024/03/20 11:49:06;;;;;;;5.65;3.00;;;;;;;15.08;37.97;100565.72;6272750;28;20501;-67
2024/03/20 11:52:15;;;;;;;5.80;3.58;;;;;;;14.88;39.22;100572.41;6274104;28;20135;-67
2024/03/20 11:55:16;;;;;;;5.03;2.70;;;;;;;15.14;40.49;100559.19;6272886;28;20044;-67
2024/03/20 11:58:18;;;;;;;5.72;3.38;;;;;;;15.59;39.93;100555.97;6274050;28;20175;-67
2024/03/20 12:01:19;;;;;;;4.53;2.78;;;;;;;14.74;39.58;100556.78;6273901;28;20501;-68
2024/03/20 12:04:21;;;;;;;4.80;3.13;;;;;;;15.54;38.93;100548.41;6289212;28;20064;-68
2024/03/20 12:07:25;;;;;;;4.13;2.90;;;;;;;15.68;38.58;100542.13;6273817;28;20045;-67
2024/03/20 12:10:34;;;;;;;4.32;3.00;;;;;;;16.27;38.03;100538.56;6272485;28;20049;-68
2024/03/20 12:13:35;;;;;;;4.05;2.85;;;;;;;16.36;37.70;100534.38;6273518;28;20044;-67
2024/03/20 12:16:36;;;;;;;5.78;2.72;;;;;;;16.34;37.44;100525.75;6273424;28;20056;-67
2024/03/20 12:19:37;;;;;;;6.95;2.83;;;;;;;16.47;37.73;100527.31;6272514;28;20061;-67
2024/03/20 12:22:39;;;;;;;4.05;2.65;;;;;;;16.64;37.88;100526.00;6273375;28;20079;-67
2024/03/20 12:25:40;;;;;;;4.97;3.03;;;;;;;16.18;36.91;100524.31;6263618;28;20104;-67
2024/03/20 12:28:41;;;;;;;7.20;3.20;;;;;;;15.91;37.72;100520.19;6221717;28;20046;-68
2024/03/20 12:31:45;;;;;;;9.88;4.55;;;;;;;15.84;37.98;100513.72;6223439;28;20054;-67
2024/03/20 12:34:46;;;;;;;5.40;2.83;;;;;;;16.24;37.76;100515.09;6223838;28;20050;-75
2024/03/20 12:37:47;;;;;;;5.07;3.10;;;;;;;15.09;37.94;100514.00;6238886;28;20050;-75
2024/03/20 12:40:47;;;;;;;5.03;3.10;;;;;;;15.54;38.72;100516.00;6255597;28;20049;-75
2024/03/20 12:43:49;;;;;;;5.57;2.83;;;;;;;15.56;37.50;100517.56;6222660;28;20080;-75
2024/03/20 12:46:50;;;;;;;5.07;2.90;;;;;;;16.42;37.28;100518.09;6222204;28;20057;-75
2024/03/20 12:49:52;;;;;;;5.00;3.35;;;;;;;16.42;37.32;100505.75;6222222;28;20151;-75
2024/03/20 12:52:53;;;;;;;5.38;3.15;;;;;;;15.43;37.60;100507.13;6254881;28;20086;-75
2024/03/20 12:55:54;;;;;;;4.85;3.10;;;;;;;15.65;38.16;100516.06;6223297;28;20597;-75
2024/03/20 12:58:56;;;;;;;5.45;3.00;;;;;;;15.66;37.78;100512.47;6222830;28;20403;-75
2024/03/20 13:02:03;;;;;;;5.45;2.80;;;;;;;15.47;37.10;100511.19;6255000;28;20053;-75
2024/03/20 13:05:09;;;;;;;4.60;2.22;;;;;;;15.95;37.54;100517.34;6223061;28;20128;-75
2024/03/20 13:08:15;;;;;;;5.90;3.17;;;;;;;16.17;37.69;100512.09;6222843;28;20061;-75
2024/03/20 13:11:17;;;;;;;3.20;2.20;;;;;;;15.75;36.52;100503.91;6223123;28;20046;-75
2024/03/20 13:14:18;;;;;;;5.63;2.63;;;;;;;15.08;37.43;100502.66;6222806;28;20104;-75
2024/03/20 13:17:18;;;;;;;5.38;2.60;;;;;;;14.87;38.24;100497.16;6254357;28;20675;-75
2024/03/20 13:20:20;;;;;;;4.15;2.45;;;;;;;15.68;37.32;100495.59;6222761;28;20050;-75
2024/03/20 13:23:21;;;;;;;5.17;2.73;;;;;;;15.65;35.60;100490.59;6222558;28;20049;-75
2024/03/20 13:26:25;;;;;;;3.97;2.25;;;;;;;15.57;36.05;100497.38;6258320;28;20089;-75
2024/03/20 13:29:28;;;;;;;4.78;2.65;;;;;;;15.81;36.01;100489.44;6246965;28;20053;-75
2024/03/20 13:32:41;;;;;;;9.65;4.40;;;;;;;15.46;37.03;100485.00;6239405;28;20048;-67
2024/03/20 13:35:42;;;;;;;7.32;4.22;;;;;;;16.00;38.07;100489.72;6228907;28;20071;-67
2024/03/20 13:38:46;;;;;;;6.53;2.90;;;;;;;16.15;37.87;100471.91;6240484;28;20497;-68
2024/03/20 13:41:57;;;;;;;5.97;2.72;;;;;;;16.02;36.88;100485.19;6246897;28;20130;-68
2024/03/20 13:44:58;;;;;;;2.72;2.05;;;;;;;16.08;36.76;100489.09;6245701;28;20050;-67
2024/03/20 13:47:59;;;;;;;6.28;2.67;;;;;;;15.61;38.31;100481.25;6222148;28;20054;-67
2024/03/20 13:51:03;;;;;;;3.90;2.47;;;;;;;15.37;38.23;100477.81;6222265;28;20050;-67
2024/03/20 13:54:07;;;;;;;4.95;2.58;;;;;;;15.50;38.69;100478.56;6221898;28;20058;-67
2024/03/20 13:57:12;;;;;;;4.07;2.75;;;;;;;15.64;38.23;100469.66;6221455;28;20099;-67
2024/03/20 14:00:13;;;;;;;3.90;2.65;;;;;;;15.91;38.79;100472.00;6220912;28;20050;-67
2024/03/20 14:03:15;;;;;;;5.50;2.47;;;;;;;15.94;39.31;100463.88;6222200;28;20046;-67
2024/03/20 14:06:20;;;;;;;3.67;2.40;;;;;;;15.73;37.16;100468.13;6241647;28;20057;-67
2024/03/20 14:09:35;;;;;;;4.40;2.15;;;;;;;15.77;38.05;100469.56;6235462;28;20053;-67
2024/03/20 14:12:36;;;;;;;3.38;2.30;;;;;;;15.79;38.00;100460.59;6236733;28;20104;-68